Latest Coastal Weather Observations for St Lawrence

IDQ60701

Issued at 1:55 am EST Saturday 26 July 2014 (issued every 10 minutes, with the page automatically refreshed every 10 minutes)

About coastal observations | Map of coastal stations | Coastal observations for QLD | Marine services | Other Formats
Station Details ID: 033210 Name: ST LAWRENCE Lat: -22.35 Lon: 149.52 Height: 9.19 m
Data from the previous 72 hours. | See also: Recent months at St Lawrence
Date/Time
EST
Temp

°C
Wind Pressure Rain
since 9am
mm
Weather Cloud Vis
km
Sea
Height
m
Swell
Dir
 
Speed
knots
Gust
knots
hPa Trend Height
m
Period
s
Dir
26/01:30am 15.5 WSW 3 4 1024.4 - 0.0 - - - - - - -
26/01:00am 15.2 SSW 3 4 1024.8 - 0.0 - - - - - - -
26/12:30am 15.5 CALM 0 0 1024.8 - 0.0 - - - - - - -
26/12:00am 15.2 SSW 0 0 1025.2 - 0.0 - - - - - - -
 
Date/Time
EST
Temp

°C
Wind Pressure Rain
since 9am
mm
Weather Cloud Vis
km
Sea
Height
m
Swell
Dir
 
Speed
knots
Gust
knots
hPa Trend Height
m
Period
s
Dir
25/11:30pm 15.2 CALM 0 0 1025.3 - 0.0 - - - - - - -
25/11:00pm 15.5 CALM 0 0 1025.4 - 0.0 - - - - - - -
25/10:30pm 14.9 CALM 0 0 1025.6 - 0.0 - - - - - - -
25/10:00pm 15.0 CALM 0 0 1025.6 - 0.0 - - - - - - -
25/09:30pm 15.8 CALM 0 0 1025.2 - 0.0 - - - - - - -
25/09:00pm 16.0 CALM 0 0 1025.1 - 0.0 - - - - - - -
25/08:30pm 16.6 CALM 0 0 1024.8 - 0.0 - - - - - - -
25/08:00pm 17.8 CALM 0 0 1024.5 - 0.0 - - - - - - -
25/07:30pm 18.6 CALM 0 0 1024.1 - 0.0 - - - - - - -
25/07:00pm 19.0 NE 3 4 1023.8 - 0.0 - - - - - - -
25/06:30pm 19.3 NE 3 4 1023.4 - 0.0 - - - - - - -
25/06:00pm 20.2 NNE 6 9 1022.9 - 0.0 - - - - - - -
25/05:30pm 21.2 NNE 7 10 1022.4 - 0.0 - - - - - - -
25/05:00pm 21.9 NNE 8 10 1022.1 - 0.0 - - - - - - -
25/04:30pm 22.8 NNE 9 13 1021.9 - 0.0 - - - - - - -
25/04:00pm 23.8 NNE 9 13 1021.6 - 0.0 - - - - - - -
25/03:30pm 23.8 NNE 10 12 1021.3 - 0.0 - - - - - - -
25/03:00pm 24.6 NE 10 13 1021.3 - 0.0 - - - - - - -
25/02:30pm 24.4 NNE 10 14 1021.4 - 0.0 - - - - - - -
25/02:00pm 24.8 ENE 7 15 1021.7 - 0.0 - - - - - - -
25/01:30pm 25.0 ENE 9 13 1022.2 - 0.0 - - - - - - -
25/01:00pm 24.5 ENE 9 13 1022.5 - 0.0 - - - - - - -
25/12:30pm 24.4 ENE 8 12 1023.0 - 0.0 - - - - - - -
25/12:00pm 24.2 E 7 12 1023.5 - 0.0 - - - - - - -
25/11:30am 23.5 E 7 11 1023.9 - 0.0 - - - - - - -
25/11:00am 23.1 E 6 10 1024.4 - 0.0 - - - - - - -
25/10:30am 22.6 E 7 13 1024.7 - 0.0 - - - - - - -
25/10:00am 21.8 E 4 6 1024.8 - 0.0 - - - - - - -
25/09:30am 19.2 SSW 3 5 1024.8 - 0.0 - - - - - - -
25/09:00am 17.8 S 3 5 1024.7 - 0.0 - - - - - - -
25/08:30am 16.6 S 3 6 1024.5 - 0.0 - - - - - - -
25/08:00am 14.3 CALM 0 0 1024.2 - 0.0 - - - - - - -
25/07:30am 12.0 SW 1 3 1023.8 - 0.0 - - - - - - -
25/07:00am 10.5 CALM 0 0 1023.4 - 0.0 - - - - - - -
25/06:30am 10.4 CALM 0 0 1023.1 - 0.0 - - - - - - -
25/06:00am 10.4 WSW 1 3 1022.8 - 0.0 - - - - - - -
25/05:30am 10.8 WSW 3 4 1022.4 - 0.0 - - - - - - -
25/05:00am 11.8 SW 3 4 1022.2 - 0.0 - - - - - - -
25/04:30am 10.7 SW 1 3 1021.9 - 0.0 - - - - - - -
25/04:00am 10.6 SW 2 4 1021.8 - 0.0 - - - - - - -
25/03:30am 11.1 WSW 2 4 1021.9 - 0.0 - - - - - - -
25/03:00am 11.2 CALM 0 0 1021.9 - 0.0 - - - - - - -
25/02:30am 11.5 WSW 1 3 1022.0 - 0.0 - - - - - - -
25/02:00am 11.0 WNW 1 4 1022.0 - 0.0 - - - - - - -
25/01:30am 12.0 CALM 0 0 1022.2 - 0.0 - - - - - - -
25/01:00am 12.0 CALM 0 0 1022.4 - 0.0 - - - - - - -
25/12:30am 12.0 CALM 0 0 1022.4 - 0.0 - - - - - - -
25/12:00am 12.6 CALM 0 0 1022.4 - 0.0 - - - - - - -
 
Date/Time
EST
Temp

°C
Wind Pressure Rain
since 9am
mm
Weather Cloud Vis
km
Sea
Height
m
Swell
Dir
 
Speed
knots
Gust
knots
hPa Trend Height
m
Period
s
Dir
24/11:30pm 13.1 CALM 0 0 1022.4 - 0.0 - - - - - - -
24/11:00pm 12.8 CALM 0 0 1022.3 - 0.0 - - - - - - -
24/10:30pm 13.5 CALM 0 0 1022.4 - 0.0 - - - - - - -
24/10:00pm 13.6 CALM 0 0 1022.3 - 0.0 - - - - - - -
24/09:30pm 14.1 CALM 0 0 1022.2 - 0.0 - - - - - - -
24/09:00pm 14.9 CALM 0 0 1022.0 - 0.0 - - - - - - -
24/08:30pm 15.7 CALM 0 0 1022.0 - 0.0 - - - - - - -
24/08:00pm 15.8 CALM 0 0 1021.7 - 0.0 - - - - - - -
24/07:30pm 16.5 CALM 0 0 1021.3 - 0.0 - - - - - - -
24/07:00pm 17.9 E 3 5 1020.9 - 0.0 - - - - - - -
24/06:30pm 18.7 NE 4 5 1020.5 - 0.0 - - - - - - -
24/06:00pm 19.4 NNE 5 7 1020.1 - 0.0 - - - - - - -
24/05:30pm 20.2 NNE 7 10 1019.7 - 0.0 - - - - - - -
24/05:00pm 21.4 NNE 8 10 1019.4 - 0.0 - - - - - - -
24/04:30pm 21.8 NNE 8 11 1019.1 - 0.0 - - - - - - -
24/04:00pm 22.6 NNE 10 13 1019.0 - 0.0 - - - - - - -
24/03:30pm 23.0 NNE 9 12 1018.8 - 0.0 - - - - - - -
24/03:00pm 22.4 NNE 9 13 1018.7 - 0.0 - - - - - - -
24/02:30pm 23.1 NNE 10 13 1018.6 - 0.0 - - - - - - -
24/02:00pm 23.9 NNE 11 14 1018.5 - 0.0 - - - - - - -
24/01:30pm 23.2 NNE 11 15 1018.5 - 0.0 - - - - - - -
24/01:00pm 23.7 NE 7 12 1018.8 - 0.0 - - - - - - -
24/12:30pm 23.0 E 7 10 1019.2 - 0.0 - - - - - - -
24/12:00pm 23.6 ENE 6 12 1019.7 - 0.0 - - - - - - -
24/11:30am 22.2 NE 8 13 1020.2 - 0.0 - - - - - - -
24/11:00am 22.6 N 5 10 1020.4 - 0.0 - - - - - - -
24/10:30am 22.1 NNE 5 10 1020.7 - 0.0 - - - - - - -
24/10:00am 20.7 SE 5 7 1020.7 - 0.0 - - - - - - -
24/09:30am 19.5 S 4 6 1021.1 - 0.0 - - - - - - -
24/09:00am 17.8 S 5 7 1021.1 - 0.0 - - - - - - -
24/08:30am 16.2 S 6 9 1021.0 - 0.0 - - - - - - -
24/08:00am 14.6 S 4 5 1021.0 - 0.0 - - - - - - -
24/07:30am 12.2 WSW 3 5 1020.8 - 0.0 - - - - - - -
24/07:00am 11.6 S 5 6 1020.3 - 0.0 - - - - - - -
24/06:30am 11.0 SSW 4 5 1020.0 - 0.0 - - - - - - -
24/06:00am 11.8 S 6 8 1019.6 - 0.0 - - - - - - -
24/05:30am 10.7 S 5 7 1019.4 - 0.0 - - - - - - -
24/05:00am 11.0 S 4 5 1019.2 - 0.0 - - - - - - -
24/04:30am 11.0 S 4 5 1019.3 - 0.0 - - - - - - -
24/04:00am 10.0 SSW 2 4 1019.3 - 0.0 - - - - - - -
24/03:30am 10.9 SSW 4 5 1019.4 - 0.0 - - - - - - -
24/03:00am 11.1 S 4 5 1019.6 - 0.0 - - - - - - -
24/02:30am 11.3 S 4 5 1019.4 - 0.0 - - - - - - -
24/02:00am 10.7 CALM 0 0 1019.6 - 0.0 - - - - - - -
24/01:30am 10.5 CALM 0 0 1019.8 - 0.0 - - - - - - -
24/01:00am 12.5 S 4 5 1020.0 - 0.0 - - - - - - -
24/12:30am 13.3 S 4 5 1020.0 - 0.0 - - - - - - -
24/12:00am 12.8 S 4 5 1020.1 - 0.0 - - - - - - -
 
Date/Time
EST
Temp

°C
Wind Pressure Rain
since 9am
mm
Weather Cloud Vis
km
Sea
Height
m
Swell
Dir
 
Speed
knots
Gust
knots
hPa Trend Height
m
Period
s
Dir
23/11:30pm 13.0 SW 4 5 1020.0 - 0.0 - - - - - - -
23/11:00pm 11.6 WSW 3 4 1020.0 - 0.0 - - - - - - -
23/10:30pm 12.8 CALM 0 0 1020.0 - 0.0 - - - - - - -
23/10:00pm 13.3 CALM 0 0 1020.2 - 0.0 - - - - - - -
23/09:30pm 14.4 CALM 0 0 1020.1 - 0.0 - - - - - - -
23/09:00pm 15.4 W 1 3 1019.8 - 0.0 - - - - - - -
23/08:30pm 17.2 ENE 3 5 1019.6 - 0.0 - - - - - - -
23/08:00pm 17.9 ENE 4 7 1019.3 - 0.0 - - - - - - -
23/07:30pm 17.9 NE 4 6 1019.0 - 0.0 - - - - - - -
23/07:00pm 18.0 ENE 3 5 1018.7 - 0.0 - - - - - - -
23/06:30pm 18.4 ENE 4 6 1018.4 - 0.0 - - - - - - -
23/06:00pm 19.0 ENE 3 5 1018.1 - 0.0 - - - - - - -
23/05:30pm 20.1 NE 6 8 1017.7 - 0.0 - - - - - - -
23/05:00pm 21.3 NE 9 13 1017.4 - 0.0 - - - - - - -
23/04:30pm 22.4 NE 9 12 1017.0 - 0.0 - - - - - - -
23/04:00pm 23.2 NE 10 15 1016.7 - 0.0 - - - - - - -
23/03:30pm 23.8 NE 10 13 1016.6 - 0.0 - - - - - - -
23/03:00pm 23.8 NE 9 14 1016.7 - 0.0 - - - - - - -
23/02:30pm 24.7 ESE 7 11 1017.1 - 0.0 - - - - - - -
23/02:00pm 24.2 ENE 7 11 1017.3 - 0.0 - - - - - - -
23/01:30pm 23.6 ENE 9 16 1017.7 - 0.0 - - - - - - -
23/01:00pm 23.9 E 5 9 1018.0 - 0.0 - - - - - - -
23/12:30pm 22.6 S 5 8 1018.5 - 0.0 - - - - - - -
23/12:00pm 23.1 S 6 10 1019.2 - 0.0 - - - - - - -
23/11:30am 21.7 SSE 5 9 1019.7 - 0.0 - - - - - - -
23/11:00am 20.9 SSE 6 10 1020.4 - 0.0 - - - - - - -
23/10:30am 20.6 SSW 6 8 1021.0 - 0.0 - - - - - - -
23/10:00am 18.2 S 7 10 1021.3 - 0.0 - - - - - - -
23/09:30am 16.7 S 7 11 1021.3 - 0.0 - - - - - - -
23/09:00am 15.3 S 9 12 1021.3 - 0.0 - - - - - - -
23/08:30am 14.8 S 9 12 1021.0 - 0.0 - - - - - - -
23/08:00am 13.1 S 7 11 1020.8 - 0.0 - - - - - - -
23/07:30am 11.4 S 6 7 1020.5 - 0.0 - - - - - - -
23/07:00am 9.4 SSW 3 4 1020.0 - 0.0 - - - - - - -
23/06:30am 8.6 CALM 0 0 1019.6 - 0.0 - - - - - - -
23/06:00am 8.4 CALM 0 0 1019.5 - 0.0 - - - - - - -
23/05:30am 8.6 SSW 1 4 1018.9 - 0.0 - - - - - - -
23/05:00am 10.0 S 4 6 1018.7 - 0.0 - - - - - - -
23/04:30am 9.4 SSW 1 3 1018.5 - 0.0 - - - - - - -
23/04:00am 8.6 SSW 2 4 1018.3 - 0.0 - - - - - - -
23/03:30am 9.3 CALM 0 0 1018.5 - 0.0 - - - - - - -
23/03:00am 10.1 SW 1 3 1018.4 - 0.0 - - - - - - -
23/02:30am 9.0 CALM 0 3 1018.7 - 0.0 - - - - - - -
23/02:00am 8.8 SW 3 4 1018.9 - 0.0 - - - - - - -

Other Formats:

Comma delimited format used in spreadsheet applications
http://www.bom.gov.au/fwo/IDQ60701/IDQ60701.95369.axf

JavaScript Object Notation format (JSON) in row-major order
http://www.bom.gov.au/fwo/IDQ60701/IDQ60701.95369.json